Time;durP1;ratioP1;P1;durP2;ratioP2;P2;SDS_P1;SDS_P2;PMS_P1;PMS_P2;Temp;Humidity;BMP_temperature;BMP_pressure;BME280_temperature;BME280_humidity;BME280_pressure;Samples;Min_cycle;Max_cycle;Signal;HPM_P1;HPM_P2
2022/05/26 00:00:42;;;;;;;2.20;2.00;;;;;;;;;;5054919;28;20543;-60
2022/05/26 00:03:10;;;;;;;5.50;2.10;;;;;;;;;;5054882;28;20815;-60
2022/05/26 00:05:37;;;;;;;1.97;1.87;;;;;;;;;;5055043;28;20547;-60
2022/05/26 00:08:05;;;;;;;1.93;1.83;;;;;;;;;;5055094;28;20448;-60
2022/05/26 00:10:34;;;;;;;2.10;1.90;;;;;;;;;;5054890;28;20785;-60
2022/05/26 00:13:01;;;;;;;5.03;1.87;;;;;;;;;;5054182;28;20467;-60
2022/05/26 00:15:29;;;;;;;2.40;2.20;;;;;;;;;;5054875;28;20454;-60
2022/05/26 00:17:56;;;;;;;1.87;1.77;;;;;;;;;;5054878;28;20548;-60
2022/05/26 00:20:24;;;;;;;2.17;1.70;;;;;;;;;;5054784;28;20459;-60
2022/05/26 00:22:51;;;;;;;1.97;1.87;;;;;;;;;;5054609;28;20494;-60
2022/05/26 00:25:18;;;;;;;2.00;1.80;;;;;;;;;;5054598;28;20446;-60
2022/05/26 00:27:45;;;;;;;2.50;2.00;;;;;;;;;;5054566;28;20514;-60
2022/05/26 00:30:12;;;;;;;2.10;2.00;;;;;;;;;;5054349;28;20444;-60
2022/05/26 00:32:39;;;;;;;2.10;1.90;;;;;;;;;;5054615;28;20535;-60
2022/05/26 00:35:07;;;;;;;1.70;1.60;;;;;;;;;;5054599;28;20535;-60
2022/05/26 00:37:36;;;;;;;2.10;2.00;;;;;;;;;;5054458;28;20448;-60
2022/05/26 00:40:06;;;;;;;1.40;1.30;;;;;;;;;;5054370;28;20883;-60
2022/05/26 00:42:33;;;;;;;1.60;1.50;;;;;;;;;;5053868;28;20920;-60
2022/05/26 00:44:59;;;;;;;1.97;1.80;;;;;;;;;;5054473;28;20875;-60
2022/05/26 00:47:29;;;;;;;1.90;1.80;;;;;;;;;;5054248;28;20550;-60
2022/05/26 00:49:58;;;;;;;1.77;1.67;;;;;;;;;;5054462;28;20455;-60
2022/05/26 00:52:28;;;;;;;3.27;1.80;;;;;;;;;;5053972;28;20456;-60
2022/05/26 00:55:00;;;;;;;1.90;1.80;;;;;;;;;;5053959;28;20551;-60
2022/05/26 00:57:31;;;;;;;1.90;1.57;;;;;;;;;;5053933;28;20548;-60
2022/05/26 01:00:00;;;;;;;1.77;1.63;;;;;;;;;;5054074;28;20546;-60
2022/05/26 01:02:32;;;;;;;1.90;1.53;;;;;;;;;;5053949;28;20494;-60
2022/05/26 01:05:00;;;;;;;3.20;1.90;;;;;;;;;;5054302;28;20447;-60
2022/05/26 01:07:29;;;;;;;1.90;1.80;;;;;;;;;;5053807;28;20483;-60
2022/05/26 01:09:57;;;;;;;1.67;1.57;;;;;;;;;;5054179;28;20563;-60
2022/05/26 01:12:24;;;;;;;3.07;1.50;;;;;;;;;;5053848;28;20543;-60
2022/05/26 01:14:53;;;;;;;1.70;1.43;;;;;;;;;;5053537;28;20459;-61
2022/05/26 01:17:26;;;;;;;2.33;1.40;;;;;;;;;;5053639;28;20440;-60
2022/05/26 01:20:18;;;;;;;2.13;1.90;;;;;;;;;;5053560;28;20455;-60
2022/05/26 01:23:00;;;;;;;4.60;1.60;;;;;;;;;;5053569;28;20494;-60
2022/05/26 01:25:36;;;;;;;3.80;1.83;;;;;;;;;;5052953;28;20454;-61
2022/05/26 01:28:08;;;;;;;1.77;1.67;;;;;;;;;;5053452;28;20448;-60
2022/05/26 01:30:41;;;;;;;1.80;1.70;;;;;;;;;;5053300;28;20539;-60
2022/05/26 01:33:18;;;;;;;1.80;1.50;;;;;;;;;;5053510;28;20458;-60
2022/05/26 01:35:51;;;;;;;3.37;2.03;;;;;;;;;;5053203;28;21026;-60
2022/05/26 01:38:23;;;;;;;2.17;1.70;;;;;;;;;;5053519;28;20878;-60
2022/05/26 01:40:54;;;;;;;1.50;1.40;;;;;;;;;;5053185;28;20543;-60
2022/05/26 01:43:23;;;;;;;1.40;1.30;;;;;;;;;;5053184;28;20844;-60
2022/05/26 01:45:52;;;;;;;2.00;1.60;;;;;;;;;;5053242;28;20471;-60
2022/05/26 01:48:25;;;;;;;1.67;1.30;;;;;;;;;;5053189;28;20444;-60
2022/05/26 01:50:55;;;;;;;4.33;1.83;;;;;;;;;;5053042;28;21034;-60
2022/05/26 01:53:26;;;;;;;1.40;1.30;;;;;;;;;;5053003;28;20815;-60
2022/05/26 01:55:56;;;;;;;1.70;1.60;;;;;;;;;;5053239;28;20539;-60
2022/05/26 01:58:28;;;;;;;1.93;1.53;;;;;;;;;;5052972;28;20459;-60
2022/05/26 02:00:56;;;;;;;1.40;1.30;;;;;;;;;;5053070;28;20539;-60
2022/05/26 02:03:27;;;;;;;2.50;1.53;;;;;;;;;;5052826;28;20571;-60
2022/05/26 02:05:56;;;;;;;1.63;1.30;;;;;;;;;;5052848;28;20452;-60
2022/05/26 02:08:25;;;;;;;1.57;1.47;;;;;;;;;;5053041;28;20458;-60
2022/05/26 02:10:54;;;;;;;1.63;1.53;;;;;;;;;;5052984;28;20448;-60
2022/05/26 02:13:24;;;;;;;1.50;1.30;;;;;;;;;;5052948;28;20542;-60
2022/05/26 02:15:54;;;;;;;1.63;1.20;;;;;;;;;;5052792;28;20448;-60
2022/05/26 02:18:23;;;;;;;1.60;1.50;;;;;;;;;;5053035;28;20537;-60
2022/05/26 02:20:52;;;;;;;1.97;1.53;;;;;;;;;;5052946;28;21015;-60
2022/05/26 02:23:24;;;;;;;1.27;1.17;;;;;;;;;;5052788;28;20567;-60
2022/05/26 02:25:51;;;;;;;2.17;1.30;;;;;;;;;;5052841;28;20531;-60
2022/05/26 02:28:18;;;;;;;2.03;1.30;;;;;;;;;;5052963;28;20444;-60
2022/05/26 02:30:44;;;;;;;1.40;1.30;;;;;;;;;;5052690;28;20451;-60
2022/05/26 02:33:13;;;;;;;1.83;1.67;;;;;;;;;;5052533;28;21333;-60
2022/05/26 02:35:42;;;;;;;1.87;1.40;;;;;;;;;;5053664;28;20960;-60
2022/05/26 02:38:13;;;;;;;1.67;1.57;;;;;;;;;;5056543;28;20529;-60
2022/05/26 02:40:40;;;;;;;2.27;1.37;;;;;;;;;;5056718;28;20808;-60
2022/05/26 02:43:08;;;;;;;1.73;1.63;;;;;;;;;;5056217;28;21097;-60
2022/05/26 02:45:39;;;;;;;2.97;1.60;;;;;;;;;;5056339;28;20462;-60
2022/05/26 02:48:11;;;;;;;1.37;1.27;;;;;;;;;;5056625;28;20546;-60
2022/05/26 02:50:42;;;;;;;1.70;1.60;;;;;;;;;;5056718;28;20452;-60
2022/05/26 02:53:13;;;;;;;2.00;1.47;;;;;;;;;;5056501;28;20452;-60
2022/05/26 02:55:46;;;;;;;1.97;1.23;;;;;;;;;;5056315;28;20452;-60
2022/05/26 02:58:14;;;;;;;2.80;1.40;;;;;;;;;;5056188;28;20544;-60
2022/05/26 03:00:46;;;;;;;2.70;1.40;;;;;;;;;;5056301;28;20535;-60
2022/05/26 03:03:16;;;;;;;2.70;1.57;;;;;;;;;;5056355;28;21018;-61
2022/05/26 03:05:48;;;;;;;1.80;1.17;;;;;;;;;;5056020;28;20452;-60
2022/05/26 03:08:18;;;;;;;1.73;1.63;;;;;;;;;;5056051;28;21006;-60
2022/05/26 03:10:48;;;;;;;6.10;2.43;;;;;;;;;;5056126;28;20444;-60
2022/05/26 03:13:15;;;;;;;1.93;1.57;;;;;;;;;;5056105;28;20455;-60
2022/05/26 03:15:42;;;;;;;1.23;1.13;;;;;;;;;;5056019;28;20454;-60
2022/05/26 03:18:09;;;;;;;4.60;1.30;;;;;;;;;;5055882;28;20539;-60
2022/05/26 03:20:36;;;;;;;1.30;1.20;;;;;;;;;;5055806;28;20452;-60
2022/05/26 03:23:03;;;;;;;3.80;1.40;;;;;;;;;;5055632;28;20480;-60
2022/05/26 03:25:32;;;;;;;3.33;1.67;;;;;;;;;;5055884;28;20535;-60
2022/05/26 03:27:59;;;;;;;1.67;1.10;;;;;;;;;;5055777;28;20946;-60
2022/05/26 03:30:25;;;;;;;3.37;1.30;;;;;;;;;;5055685;28;20554;-60
2022/05/26 03:32:52;;;;;;;2.73;1.10;;;;;;;;;;5055575;28;20892;-60
2022/05/26 03:40:52;;;;;;;1.93;1.07;;;;;;;;;;5055506;28;20427;-60
2022/05/26 03:43:20;;;;;;;3.13;1.20;;;;;;;;;;5055324;28;20510;-60
2022/05/26 03:45:47;;;;;;;1.20;1.10;;;;;;;;;;5055314;28;20811;-60
2022/05/26 03:48:14;;;;;;;1.20;1.10;;;;;;;;;;5054502;28;20441;-60
2022/05/26 03:50:41;;;;;;;1.10;1.00;;;;;;;;;;5055356;28;20440;-60
2022/05/26 03:53:08;;;;;;;4.17;1.43;;;;;;;;;;5055273;28;20803;-60
2022/05/26 03:55:35;;;;;;;1.60;1.40;;;;;;;;;;5055281;28;20910;-60
2022/05/26 03:58:04;;;;;;;1.83;1.30;;;;;;;;;;5055398;28;20448;-60
2022/05/26 04:00:31;;;;;;;1.93;1.47;;;;;;;;;;5054952;28;20448;-60
2022/05/26 04:02:58;;;;;;;1.67;1.30;;;;;;;;;;5055174;28;20495;-60
2022/05/26 04:05:25;;;;;;;3.00;2.00;;;;;;;;;;5055093;28;20456;-60
2022/05/26 04:07:52;;;;;;;1.30;1.03;;;;;;;;;;5054977;28;20448;-60
2022/05/26 04:10:19;;;;;;;1.47;1.17;;;;;;;;;;5054915;28;20455;-60
2022/05/26 04:12:46;;;;;;;1.40;1.30;;;;;;;;;;5054795;28;20452;-60
2022/05/26 04:15:16;;;;;;;1.40;1.30;;;;;;;;;;5054742;28;20451;-60
2022/05/26 04:17:43;;;;;;;1.37;1.27;;;;;;;;;;5054953;28;20449;-60
2022/05/26 04:20:13;;;;;;;2.67;1.40;;;;;;;;;;5054848;28;20451;-60
2022/05/26 04:22:40;;;;;;;1.30;1.20;;;;;;;;;;5054598;28;20472;-60
2022/05/26 04:25:07;;;;;;;1.30;1.20;;;;;;;;;;5054572;28;21001;-60
2022/05/26 04:27:35;;;;;;;1.40;1.10;;;;;;;;;;5054553;28;20480;-60
2022/05/26 04:30:03;;;;;;;3.17;1.43;;;;;;;;;;5054968;28;20448;-60
2022/05/26 04:32:31;;;;;;;1.53;1.10;;;;;;;;;;5054632;28;20493;-60
2022/05/26 04:34:58;;;;;;;1.20;1.10;;;;;;;;;;5054505;28;20480;-60
2022/05/26 04:37:26;;;;;;;1.50;1.20;;;;;;;;;;5054503;28;20475;-60
2022/05/26 04:39:55;;;;;;;1.13;1.03;;;;;;;;;;5054583;28;20539;-60
2022/05/26 04:42:22;;;;;;;3.47;1.20;;;;;;;;;;5053995;28;20898;-60
2022/05/26 04:44:50;;;;;;;1.73;1.20;;;;;;;;;;5054422;28;20863;-60
2022/05/26 04:47:18;;;;;;;1.23;1.10;;;;;;;;;;5054312;28;20789;-60
2022/05/26 04:49:46;;;;;;;1.43;1.33;;;;;;;;;;5054217;28;20457;-60
2022/05/26 04:52:14;;;;;;;1.37;1.27;;;;;;;;;;5054146;28;20889;-60
2022/05/26 04:54:42;;;;;;;3.73;1.10;;;;;;;;;;5053968;28;20453;-60
2022/05/26 04:57:09;;;;;;;1.27;1.17;;;;;;;;;;5054420;28;20475;-60
2022/05/26 04:59:36;;;;;;;1.50;1.20;;;;;;;;;;5053883;28;20458;-60
2022/05/26 05:02:04;;;;;;;1.30;1.20;;;;;;;;;;5053882;28;20451;-60
2022/05/26 05:04:31;;;;;;;1.80;1.17;;;;;;;;;;5053897;28;20450;-60
2022/05/26 05:06:59;;;;;;;2.40;1.20;;;;;;;;;;5053792;28;20815;-60
2022/05/26 05:09:26;;;;;;;1.57;1.17;;;;;;;;;;5053766;28;20567;-60
2022/05/26 05:11:53;;;;;;;3.30;1.47;;;;;;;;;;5053905;28;21137;-60
2022/05/26 05:14:21;;;;;;;4.70;1.40;;;;;;;;;;5054062;28;20536;-60
2022/05/26 05:16:48;;;;;;;2.33;1.03;;;;;;;;;;5053826;28;20502;-61
2022/05/26 05:19:16;;;;;;;1.83;1.70;;;;;;;;;;5053679;28;20449;-60
2022/05/26 05:21:45;;;;;;;2.53;1.30;;;;;;;;;;5053795;28;20539;-60
2022/05/26 05:24:16;;;;;;;3.20;1.10;;;;;;;;;;5053597;28;20580;-60
2022/05/26 05:26:45;;;;;;;1.43;1.33;;;;;;;;;;5053684;28;20452;-60
2022/05/26 05:29:14;;;;;;;6.27;1.30;;;;;;;;;;5053502;28;20453;-60
2022/05/26 05:31:43;;;;;;;1.20;1.10;;;;;;;;;;5053402;28;20456;-60
2022/05/26 05:34:13;;;;;;;1.80;1.10;;;;;;;;;;5053331;28;20545;-60
2022/05/26 05:36:40;;;;;;;2.60;1.13;;;;;;;;;;5053580;28;20883;-60
2022/05/26 05:39:08;;;;;;;1.67;1.33;;;;;;;;;;5053410;28;20451;-60
2022/05/26 05:41:37;;;;;;;3.57;1.30;;;;;;;;;;5053549;28;20448;-60
2022/05/26 05:44:05;;;;;;;1.20;1.10;;;;;;;;;;5053081;28;20495;-60
2022/05/26 05:46:34;;;;;;;1.93;1.73;;;;;;;;;;5053131;28;20484;-60
2022/05/26 05:49:04;;;;;;;2.47;1.30;;;;;;;;;;5053039;28;20460;-60
2022/05/26 05:51:31;;;;;;;2.90;1.37;;;;;;;;;;5053191;28;20808;-60
2022/05/26 05:53:58;;;;;;;2.30;1.50;;;;;;;;;;5053193;28;20792;-60
2022/05/26 05:56:26;;;;;;;2.87;1.30;;;;;;;;;;5053027;28;20458;-60
2022/05/26 05:58:55;;;;;;;1.97;1.40;;;;;;;;;;5053262;28;20490;-60
2022/05/26 06:01:22;;;;;;;1.57;1.37;;;;;;;;;;5052963;28;20456;-60
2022/05/26 06:03:49;;;;;;;2.73;1.40;;;;;;;;;;5052983;28;20480;-60
2022/05/26 06:06:16;;;;;;;5.23;1.60;;;;;;;;;;5053037;28;20448;-60
2022/05/26 06:08:44;;;;;;;1.90;1.80;;;;;;;;;;5053188;28;20543;-60
2022/05/26 06:11:11;;;;;;;2.60;1.40;;;;;;;;;;5052172;28;20455;-60
2022/05/26 06:13:38;;;;;;;1.80;1.70;;;;;;;;;;5052847;28;20539;-60
2022/05/26 06:16:06;;;;;;;2.80;1.77;;;;;;;;;;5052661;28;20538;-60
2022/05/26 06:18:34;;;;;;;1.97;1.87;;;;;;;;;;5052806;28;20939;-60
2022/05/26 06:21:02;;;;;;;2.00;1.80;;;;;;;;;;5052899;28;20848;-60
2022/05/26 06:23:28;;;;;;;2.87;1.83;;;;;;;;;;5052789;28;20480;-60
2022/05/26 06:25:55;;;;;;;2.30;1.97;;;;;;;;;;5052834;28;20563;-60
2022/05/26 06:31:09;;;;;;;2.10;2.00;;;;;;;;;;5052693;28;20514;-60
2022/05/26 06:39:07;;;;;;;3.33;1.93;;;;;;;;;;5052585;28;20463;-60
2022/05/26 06:44:19;;;;;;;2.20;2.00;;;;;;;;;;5052582;28;20483;-60
2022/05/26 06:46:48;;;;;;;3.03;2.10;;;;;;;;;;5052495;28;20491;-60
2022/05/26 06:49:15;;;;;;;2.47;2.27;;;;;;;;;;5052602;28;20456;-60
2022/05/26 06:51:43;;;;;;;2.60;2.40;;;;;;;;;;5052628;28;20535;-60
2022/05/26 06:54:10;;;;;;;2.43;2.27;;;;;;;;;;5052607;28;20510;-60
2022/05/26 06:56:37;;;;;;;1.90;1.80;;;;;;;;;;5052547;28;20546;-60
2022/05/26 06:59:04;;;;;;;3.00;2.00;;;;;;;;;;5052386;28;20462;-60
2022/05/26 07:01:31;;;;;;;2.20;1.97;;;;;;;;;;5052490;28;20456;-60
2022/05/26 07:04:00;;;;;;;2.07;1.97;;;;;;;;;;5052155;28;20578;-60
2022/05/26 07:06:28;;;;;;;2.60;2.13;;;;;;;;;;5052590;28;20935;-60
2022/05/26 07:08:55;;;;;;;2.03;1.93;;;;;;;;;;5052438;28;20518;-60
2022/05/26 07:11:22;;;;;;;1.90;1.80;;;;;;;;;;5052444;28;20509;-60
2022/05/26 07:13:50;;;;;;;3.10;1.77;;;;;;;;;;5052205;28;20542;-60
2022/05/26 07:16:17;;;;;;;3.90;2.10;;;;;;;;;;5052307;28;20448;-60
2022/05/26 07:18:45;;;;;;;2.10;1.90;;;;;;;;;;5052280;28;20665;-60
2022/05/26 07:21:14;;;;;;;8.70;2.33;;;;;;;;;;5052453;28;20976;-60
2022/05/26 07:23:41;;;;;;;2.80;1.90;;;;;;;;;;5054655;28;20901;-60
2022/05/26 07:26:09;;;;;;;2.53;1.90;;;;;;;;;;5055671;28;20448;-61
2022/05/26 07:28:38;;;;;;;1.87;1.70;;;;;;;;;;5055718;28;20448;-60
2022/05/26 07:31:05;;;;;;;5.00;2.00;;;;;;;;;;5055439;28;20453;-60
2022/05/26 07:33:32;;;;;;;2.60;1.97;;;;;;;;;;5055612;28;20448;-60
2022/05/26 07:35:59;;;;;;;2.10;1.90;;;;;;;;;;5055645;28;20471;-60
2022/05/26 07:41:22;;;;;;;3.53;2.17;;;;;;;;;;5055457;28;20447;-60
2022/05/26 07:43:52;;;;;;;1.93;1.83;;;;;;;;;;5055123;28;20487;-61
2022/05/26 07:46:19;;;;;;;2.03;1.93;;;;;;;;;;5055725;28;20544;-61
2022/05/26 07:48:46;;;;;;;2.37;2.20;;;;;;;;;;5055307;28;20498;-61
2022/05/26 07:51:13;;;;;;;3.50;2.70;;;;;;;;;;5055381;28;20456;-61
2022/05/26 07:53:41;;;;;;;3.60;2.50;;;;;;;;;;5055178;28;20444;-61
2022/05/26 07:56:08;;;;;;;3.03;2.83;;;;;;;;;;5055023;28;20531;-61
2022/05/26 07:58:35;;;;;;;3.00;2.73;;;;;;;;;;5055208;28;20843;-61
2022/05/26 08:01:03;;;;;;;7.20;3.10;;;;;;;;;;5055114;28;20456;-61
2022/05/26 08:03:30;;;;;;;4.17;3.87;;;;;;;;;;5054914;28;20478;-61
2022/05/26 08:05:57;;;;;;;4.33;4.10;;;;;;;;;;5054941;28;20476;-61
2022/05/26 08:08:26;;;;;;;4.10;3.80;;;;;;;;;;5054822;28;21014;-61
2022/05/26 08:10:54;;;;;;;4.47;4.17;;;;;;;;;;5055196;28;20454;-61
2022/05/26 08:13:21;;;;;;;4.73;4.43;;;;;;;;;;5055010;28;20544;-61
2022/05/26 08:15:49;;;;;;;4.73;4.27;;;;;;;;;;5054908;28;20452;-61
2022/05/26 08:18:16;;;;;;;4.63;4.27;;;;;;;;;;5054763;28;20456;-60
2022/05/26 08:20:43;;;;;;;5.20;4.80;;;;;;;;;;5054658;28;20551;-60
2022/05/26 08:23:12;;;;;;;4.57;4.27;;;;;;;;;;5054415;28;20448;-60
2022/05/26 08:25:39;;;;;;;6.23;5.03;;;;;;;;;;5054765;28;20452;-60
2022/05/26 08:28:07;;;;;;;5.20;4.90;;;;;;;;;;5054658;28;20539;-60
2022/05/26 08:30:35;;;;;;;5.67;5.30;;;;;;;;;;5054549;28;20555;-60
2022/05/26 08:33:02;;;;;;;5.70;5.30;;;;;;;;;;5054144;28;20455;-61
2022/05/26 08:35:29;;;;;;;6.03;5.37;;;;;;;;;;5054567;28;20451;-61
2022/05/26 08:37:55;;;;;;;4.87;4.57;;;;;;;;;;5054807;28;20460;-61
2022/05/26 08:40:29;;;;;;;5.30;4.90;;;;;;;;;;5054403;28;20455;-61
2022/05/26 08:42:56;;;;;;;5.30;4.90;;;;;;;;;;5054049;28;20559;-61
2022/05/26 08:45:24;;;;;;;5.33;4.80;;;;;;;;;;5054068;28;20587;-61
2022/05/26 08:47:51;;;;;;;4.50;4.10;;;;;;;;;;5054053;28;20646;-61
2022/05/26 08:50:20;;;;;;;4.07;3.77;;;;;;;;;;5054226;28;20453;-61
2022/05/26 08:52:49;;;;;;;5.67;4.00;;;;;;;;;;5054103;28;20815;-61
2022/05/26 08:55:18;;;;;;;3.93;3.27;;;;;;;;;;5053858;28;21020;-61
2022/05/26 08:57:46;;;;;;;3.40;3.20;;;;;;;;;;5053977;28;20450;-61
2022/05/26 09:00:14;;;;;;;3.83;3.23;;;;;;;;;;5053920;28;20486;-61
2022/05/26 09:02:42;;;;;;;2.67;2.50;;;;;;;;;;5053728;28;20799;-61
2022/05/26 09:05:12;;;;;;;5.13;2.73;;;;;;;;;;5053817;28;20484;-61
2022/05/26 09:13:11;;;;;;;2.20;1.87;;;;;;;;;;5053649;28;20950;-61
2022/05/26 09:15:38;;;;;;;2.40;2.20;;;;;;;;;;5053670;28;20812;-61
2022/05/26 09:18:14;;;;;;;2.70;2.50;;;;;;;;;;5053714;28;20522;-61
2022/05/26 09:20:42;;;;;;;2.23;2.07;;;;;;;;;;5053501;28;20443;-62
2022/05/26 09:23:14;;;;;;;2.07;1.87;;;;;;;;;;5053371;28;20868;-61
2022/05/26 09:25:44;;;;;;;2.77;2.60;;;;;;;;;;5053213;28;20519;-61
2022/05/26 09:28:11;;;;;;;2.50;2.30;;;;;;;;;;5053476;28;20539;-61
2022/05/26 09:30:39;;;;;;;3.53;2.50;;;;;;;;;;5053449;28;20452;-61
2022/05/26 09:33:19;;;;;;;2.50;1.80;;;;;;;;;;5053345;28;20855;-61
2022/05/26 09:35:47;;;;;;;1.77;1.60;;;;;;;;;;5053499;28;20463;-61
2022/05/26 09:38:18;;;;;;;1.40;1.30;;;;;;;;;;5053203;28;20464;-61
2022/05/26 09:40:46;;;;;;;2.37;1.90;;;;;;;;;;5053255;28;20539;-61
2022/05/26 09:43:21;;;;;;;1.83;1.30;;;;;;;;;;5053122;28;20476;-61
2022/05/26 09:45:49;;;;;;;3.93;1.40;;;;;;;;;;5052147;28;20490;-61
2022/05/26 09:48:18;;;;;;;2.50;1.20;;;;;;;;;;5053336;28;21038;-61
2022/05/26 09:50:49;;;;;;;4.37;1.83;;;;;;;;;;5052957;28;20448;-62
2022/05/26 09:53:27;;;;;;;1.10;1.03;;;;;;;;;;5053114;28;20540;-61
2022/05/26 09:55:55;;;;;;;2.23;1.40;;;;;;;;;;5053025;28;20535;-61
2022/05/26 09:58:27;;;;;;;1.10;1.00;;;;;;;;;;5052985;28;20480;-61
2022/05/26 10:00:55;;;;;;;1.60;1.00;;;;;;;;;;5052940;28;20506;-62
2022/05/26 10:03:26;;;;;;;1.37;1.00;;;;;;;;;;5053057;28;21018;-62
2022/05/26 10:06:00;;;;;;;2.30;0.97;;;;;;;;;;5053103;28;20490;-61
2022/05/26 10:08:30;;;;;;;2.13;1.00;;;;;;;;;;5052901;28;20451;-61
2022/05/26 10:10:59;;;;;;;0.90;0.90;;;;;;;;;;5052698;28;20444;-61
2022/05/26 10:13:31;;;;;;;1.57;0.90;;;;;;;;;;5052699;28;20764;-61
2022/05/26 10:16:03;;;;;;;1.57;1.00;;;;;;;;;;5052876;28;20455;-61
2022/05/26 10:18:37;;;;;;;1.10;1.00;;;;;;;;;;5053174;28;20452;-61
2022/05/26 10:21:08;;;;;;;1.30;0.90;;;;;;;;;;5052838;28;20480;-61
2022/05/26 10:23:44;;;;;;;2.43;1.10;;;;;;;;;;5052830;28;20967;-61
2022/05/26 10:26:17;;;;;;;0.90;0.90;;;;;;;;;;5053146;28;20432;-61
2022/05/26 10:28:55;;;;;;;2.67;1.00;;;;;;;;;;5052683;28;20447;-61
2022/05/26 10:31:29;;;;;;;1.53;1.00;;;;;;;;;;5052664;28;20547;-62
2022/05/26 10:34:15;;;;;;;1.63;1.03;;;;;;;;;;5052548;28;20538;-62
2022/05/26 10:36:54;;;;;;;1.50;1.00;;;;;;;;;;5052557;28;20539;-62
2022/05/26 10:39:25;;;;;;;2.43;1.10;;;;;;;;;;5052532;28;20541;-61
2022/05/26 10:41:54;;;;;;;1.20;1.10;;;;;;;;;;5052341;28;20541;-62
2022/05/26 10:44:26;;;;;;;2.70;0.93;;;;;;;;;;5052374;28;20574;-61
2022/05/26 10:46:57;;;;;;;6.93;1.40;;;;;;;;;;5052058;28;20452;-61
2022/05/26 10:49:27;;;;;;;1.20;1.10;;;;;;;;;;5052460;28;20803;-62
2022/05/26 10:51:57;;;;;;;3.03;1.40;;;;;;;;;;5052344;28;20535;-61
2022/05/26 10:54:28;;;;;;;1.20;1.10;;;;;;;;;;5052428;28;20462;-62
2022/05/26 10:56:59;;;;;;;2.13;1.20;;;;;;;;;;5053816;28;21019;-62
2022/05/26 10:59:27;;;;;;;2.60;1.30;;;;;;;;;;5056177;28;20509;-62
2022/05/26 11:01:57;;;;;;;1.33;1.10;;;;;;;;;;5056405;28;21018;-62
2022/05/26 11:04:26;;;;;;;1.87;1.17;;;;;;;;;;5056046;28;20478;-62
2022/05/26 11:06:56;;;;;;;4.13;1.40;;;;;;;;;;5056110;28;20444;-62
2022/05/26 11:09:30;;;;;;;2.93;1.80;;;;;;;;;;5056010;28;20646;-62
2022/05/26 11:12:00;;;;;;;1.93;1.37;;;;;;;;;;5055916;28;20451;-62
2022/05/26 11:17:26;;;;;;;2.27;1.40;;;;;;;;;;5055902;28;20470;-62
2022/05/26 11:19:59;;;;;;;2.20;1.47;;;;;;;;;;5055618;28;20455;-62
2022/05/26 11:22:26;;;;;;;2.73;1.63;;;;;;;;;;5055717;28;20440;-62
2022/05/26 11:24:55;;;;;;;1.30;1.13;;;;;;;;;;5055907;28;20519;-62
2022/05/26 11:27:26;;;;;;;1.97;1.33;;;;;;;;;;5056065;28;20456;-61
2022/05/26 11:29:55;;;;;;;2.00;1.30;;;;;;;;;;5055686;28;20456;-62
2022/05/26 11:38:00;;;;;;;3.63;1.33;;;;;;;;;;5055452;28;20471;-61
2022/05/26 11:40:31;;;;;;;3.23;1.30;;;;;;;;;;5055448;28;20547;-62
2022/05/26 11:42:58;;;;;;;2.33;1.50;;;;;;;;;;5055291;28;20891;-62
2022/05/26 11:45:27;;;;;;;2.80;1.63;;;;;;;;;;5055427;28;20471;-62
2022/05/26 11:47:59;;;;;;;2.27;1.60;;;;;;;;;;5055381;28;20555;-61
2022/05/26 11:50:31;;;;;;;3.13;1.50;;;;;;;;;;5055240;28;20543;-61
2022/05/26 11:53:03;;;;;;;1.87;1.40;;;;;;;;;;5055204;28;20551;-62
2022/05/26 11:55:33;;;;;;;1.70;1.30;;;;;;;;;;5054953;28;20499;-61
2022/05/26 11:58:16;;;;;;;4.10;1.40;;;;;;;;;;5055273;28;20555;-61
2022/05/26 12:00:44;;;;;;;3.33;1.63;;;;;;;;;;5055036;28;20773;-61
2022/05/26 12:03:28;;;;;;;3.30;1.53;;;;;;;;;;5055008;28;20505;-62
2022/05/26 12:05:57;;;;;;;1.73;1.40;;;;;;;;;;5054660;28;20562;-61
2022/05/26 12:08:32;;;;;;;1.37;1.23;;;;;;;;;;5054474;28;20484;-61
2022/05/26 12:11:01;;;;;;;2.57;1.70;;;;;;;;;;5054963;28;20448;-61
2022/05/26 12:13:33;;;;;;;1.50;1.40;;;;;;;;;;5054917;28;20444;-62
2022/05/26 12:16:08;;;;;;;2.00;1.30;;;;;;;;;;5054953;28;20490;-61
2022/05/26 12:18:39;;;;;;;5.80;1.87;;;;;;;;;;5054594;28;20447;-61
2022/05/26 12:21:13;;;;;;;5.37;1.50;;;;;;;;;;5054836;28;20535;-61
2022/05/26 12:23:42;;;;;;;2.00;1.57;;;;;;;;;;5054567;28;20810;-61
2022/05/26 12:26:39;;;;;;;5.27;1.87;;;;;;;;;;5054531;28;20479;-61
2022/05/26 12:29:21;;;;;;;3.00;1.63;;;;;;;;;;5054378;28;20823;-62
2022/05/26 12:32:15;;;;;;;2.77;1.60;;;;;;;;;;5054782;28;20547;-62
2022/05/26 12:34:50;;;;;;;2.70;1.70;;;;;;;;;;5030342;28;20460;-61
2022/05/26 12:37:21;;;;;;;5.80;1.83;;;;;;;;;;5054345;28;20479;-62
2022/05/26 12:40:06;;;;;;;2.80;1.97;;;;;;;;;;5054357;28;20490;-61
2022/05/26 12:42:40;;;;;;;3.60;1.90;;;;;;;;;;5054094;28;20450;-62
2022/05/26 12:45:26;;;;;;;1.77;1.67;;;;;;;;;;5054234;28;20862;-61
2022/05/26 12:48:08;;;;;;;3.00;1.90;;;;;;;;;;5054298;28;20544;-61
2022/05/26 12:50:40;;;;;;;3.40;2.13;;;;;;;;;;5052515;28;20456;-61
2022/05/26 12:53:12;;;;;;;1.50;1.40;;;;;;;;;;5053906;28;20453;-61
2022/05/26 12:55:41;;;;;;;3.00;1.73;;;;;;;;;;5053997;28;20463;-62
2022/05/26 12:58:10;;;;;;;2.30;1.60;;;;;;;;;;5053711;28;20448;-61
2022/05/26 13:00:39;;;;;;;3.63;1.80;;;;;;;;;;5053922;28;20535;-61
2022/05/26 13:03:07;;;;;;;3.60;1.80;;;;;;;;;;5053865;28;20534;-61
2022/05/26 13:05:35;;;;;;;3.87;2.10;;;;;;;;;;5053615;28;20554;-61
2022/05/26 13:08:05;;;;;;;4.00;1.60;;;;;;;;;;5053708;28;20458;-62
2022/05/26 13:10:33;;;;;;;2.03;1.60;;;;;;;;;;5053534;28;20547;-62
2022/05/26 13:13:00;;;;;;;2.13;1.70;;;;;;;;;;5053372;28;20531;-61
2022/05/26 13:15:28;;;;;;;2.30;1.37;;;;;;;;;;5053562;28;20530;-61
2022/05/26 13:17:56;;;;;;;1.60;1.50;;;;;;;;;;5053528;28;20448;-61
2022/05/26 13:20:24;;;;;;;1.73;1.43;;;;;;;;;;5053654;28;21011;-61
2022/05/26 13:22:51;;;;;;;3.20;1.90;;;;;;;;;;5053835;28;20447;-62
2022/05/26 13:25:25;;;;;;;3.00;1.93;;;;;;;;;;5053567;28;20575;-62
2022/05/26 13:27:53;;;;;;;3.40;1.73;;;;;;;;;;5053844;28;20457;-61
2022/05/26 13:33:09;;;;;;;3.03;1.60;;;;;;;;;;5020273;28;20444;-61
2022/05/26 13:35:40;;;;;;;2.83;1.50;;;;;;;;;;5053236;28;20521;-61
2022/05/26 13:38:19;;;;;;;3.43;1.93;;;;;;;;;;5053436;28;20531;-61
2022/05/26 13:40:47;;;;;;;3.50;1.60;;;;;;;;;;5052989;28;20475;-62
2022/05/26 13:43:15;;;;;;;2.67;1.53;;;;;;;;;;5052845;28;20486;-61
2022/05/26 13:45:44;;;;;;;5.47;2.00;;;;;;;;;;5053003;28;20490;-61
2022/05/26 13:48:29;;;;;;;3.93;2.27;;;;;;;;;;5052972;28;20453;-61
2022/05/26 13:50:59;;;;;;;2.60;1.93;;;;;;;;;;5053103;28;20480;-61
2022/05/26 13:53:26;;;;;;;3.30;1.47;;;;;;;;;;5053610;28;20543;-61
2022/05/26 13:55:56;;;;;;;3.20;1.80;;;;;;;;;;5053316;28;20448;-62
2022/05/26 13:58:23;;;;;;;3.20;1.60;;;;;;;;;;5052906;28;20456;-62
2022/05/26 14:00:58;;;;;;;4.00;2.00;;;;;;;;;;5053144;28;20444;-62
2022/05/26 14:03:26;;;;;;;5.47;2.20;;;;;;;;;;5053149;28;20543;-61
2022/05/26 14:06:00;;;;;;;2.33;1.77;;;;;;;;;;5052810;28;20582;-62
2022/05/26 14:08:27;;;;;;;4.00;1.80;;;;;;;;;;5052728;28;20445;-62
2022/05/26 14:10:56;;;;;;;4.90;4.37;;;;;;;;;;5052617;28;20488;-62
2022/05/26 14:13:25;;;;;;;9.10;5.00;;;;;;;;;;5052992;28;20544;-62
2022/05/26 14:15:53;;;;;;;2.50;2.17;;;;;;;;;;5053141;28;21013;-62
2022/05/26 14:18:21;;;;;;;6.93;2.67;;;;;;;;;;5052762;28;20453;-62
2022/05/26 14:20:59;;;;;;;4.03;2.33;;;;;;;;;;5052836;28;20803;-62
2022/05/26 14:23:26;;;;;;;7.37;3.53;;;;;;;;;;5052895;28;20451;-62
2022/05/26 14:25:58;;;;;;;2.80;2.00;;;;;;;;;;5052776;28;20902;-62
2022/05/26 14:28:33;;;;;;;3.67;2.83;;;;;;;;;;5052606;28;20448;-62
2022/05/26 14:31:02;;;;;;;3.97;3.10;;;;;;;;;;5052476;28;20516;-62
2022/05/26 14:33:30;;;;;;;3.73;1.40;;;;;;;;;;5056530;28;20454;-62
2022/05/26 14:35:58;;;;;;;1.40;1.30;;;;;;;;;;5056526;28;20546;-61
2022/05/26 14:38:25;;;;;;;3.20;1.60;;;;;;;;;;5056988;28;20454;-62
2022/05/26 14:40:52;;;;;;;2.10;1.60;;;;;;;;;;5056650;28;20460;-62
2022/05/26 14:43:22;;;;;;;1.83;1.13;;;;;;;;;;5056474;28;20546;-62
2022/05/26 14:45:49;;;;;;;6.30;1.80;;;;;;;;;;5056303;28;20476;-62
2022/05/26 14:48:16;;;;;;;2.70;1.77;;;;;;;;;;5056437;28;20869;-62
2022/05/26 14:50:44;;;;;;;2.33;1.33;;;;;;;;;;5056249;28;20502;-62
2022/05/26 14:53:12;;;;;;;2.80;1.50;;;;;;;;;;5056380;28;20444;-62
2022/05/26 14:55:39;;;;;;;2.70;1.60;;;;;;;;;;5056466;28;20547;-62
2022/05/26 14:58:07;;;;;;;4.97;2.20;;;;;;;;;;5056479;28;20456;-62
2022/05/26 15:00:38;;;;;;;3.57;1.50;;;;;;;;;;5056125;28;20547;-61
2022/05/26 15:03:06;;;;;;;2.67;1.37;;;;;;;;;;5055928;28;20781;-61
2022/05/26 15:05:33;;;;;;;3.50;1.17;;;;;;;;;;5056154;28;20583;-62
2022/05/26 15:08:00;;;;;;;1.80;1.10;;;;;;;;;;5055890;28;20962;-62
2022/05/26 15:10:27;;;;;;;2.33;1.40;;;;;;;;;;5056073;28;20542;-61
2022/05/26 15:12:54;;;;;;;4.53;1.50;;;;;;;;;;5055973;28;20535;-62
2022/05/26 15:15:21;;;;;;;2.13;1.23;;;;;;;;;;5055650;28;20448;-61
2022/05/26 15:17:50;;;;;;;2.93;1.67;;;;;;;;;;5056103;28;20452;-62
2022/05/26 15:20:18;;;;;;;2.90;1.53;;;;;;;;;;5055911;28;20452;-61
2022/05/26 15:22:45;;;;;;;1.30;1.10;;;;;;;;;;5055845;28;20538;-62
2022/05/26 15:25:13;;;;;;;1.67;1.20;;;;;;;;;;5055806;28;20535;-62
2022/05/26 15:27:40;;;;;;;1.70;1.27;;;;;;;;;;5056067;28;20501;-61
2022/05/26 15:30:08;;;;;;;2.63;1.10;;;;;;;;;;5055732;28;20958;-62
2022/05/26 15:32:36;;;;;;;2.17;1.30;;;;;;;;;;5055866;28;20522;-61